Time;durP1;ratioP1;P1;durP2;ratioP2;P2;SDS_P1;SDS_P2;PMS_P1;PMS_P2;Temp;Humidity;BMP_temperature;BMP_pressure;BME280_temperature;BME280_humidity;BME280_pressure;Samples;Min_cycle;Max_cycle;Signal;HPM_P1;HPM_P2
2022/10/11 00:02:16;;;;;;;11.60;4.32;;;8.50;99.90;;;;;;4961762;28;20517;-66
2022/10/11 00:04:42;;;;;;;9.68;4.00;;;8.50;99.90;;;;;;4942535;28;20039;-66
2022/10/11 00:07:08;;;;;;;14.10;4.10;;;8.50;99.90;;;;;;4939103;28;20039;-66
2022/10/11 00:09:33;;;;;;;11.07;4.70;;;8.50;99.90;;;;;;4965552;28;20486;-65
2022/10/11 00:11:59;;;;;;;8.93;4.28;;;8.50;99.90;;;;;;4963213;28;20490;-65
2022/10/11 00:14:25;;;;;;;8.52;4.22;;;8.50;99.90;;;;;;4960493;28;20054;-65
2022/10/11 00:16:52;;;;;;;11.52;4.80;;;8.50;99.90;;;;;;4960185;28;20049;-65
2022/10/11 00:19:17;;;;;;;13.70;5.30;;;8.50;99.90;;;;;;4951790;28;20118;-65
2022/10/11 00:21:43;;;;;;;12.07;5.20;;;8.50;99.90;;;;;;4960477;28;20031;-65
2022/10/11 00:24:10;;;;;;;11.20;4.78;;;8.50;99.90;;;;;;4959681;28;20119;-65
2022/10/11 00:26:35;;;;;;;10.43;5.35;;;8.50;99.90;;;;;;4947656;28;20042;-65
2022/10/11 00:29:01;;;;;;;14.10;4.70;;;8.40;99.90;;;;;;4958989;28;20035;-65
2022/10/11 00:31:27;;;;;;;12.23;5.45;;;8.40;99.90;;;;;;4962423;28;20041;-65
2022/10/11 00:33:53;;;;;;;10.55;5.28;;;8.30;99.90;;;;;;4954303;28;20113;-65
2022/10/11 00:36:19;;;;;;;11.40;5.35;;;8.30;99.90;;;;;;4961761;28;20035;-66
2022/10/11 00:38:45;;;;;;;9.25;5.10;;;8.30;99.90;;;;;;4943624;28;20039;-65
2022/10/11 00:41:12;;;;;;;10.85;4.80;;;8.20;99.90;;;;;;4960259;28;20034;-65
2022/10/11 00:43:38;;;;;;;13.63;5.28;;;8.20;99.90;;;;;;4951071;28;20022;-65
2022/10/11 00:46:17;;;;;;;11.65;5.03;;;8.20;99.90;;;;;;4965282;28;20034;-65
2022/10/11 00:48:49;;;;;;;9.55;5.35;;;8.20;99.90;;;;;;4961260;28;20470;-65
2022/10/11 00:51:48;;;;;;;8.60;5.37;;;8.20;99.90;;;;;;4956794;28;20027;-65
2022/10/11 00:54:17;;;;;;;9.18;5.18;;;8.10;99.90;;;;;;4956142;28;20039;-66
2022/10/11 00:56:48;;;;;;;10.32;5.47;;;8.10;99.90;;;;;;4960560;28;20039;-66
2022/10/11 00:59:17;;;;;;;10.65;5.60;;;8.10;99.90;;;;;;4956391;28;20027;-65
2022/10/11 01:01:44;;;;;;;10.63;5.03;;;8.10;99.90;;;;;;4958104;28;20527;-66
2022/10/11 01:04:09;;;;;;;13.10;5.35;;;8.10;99.90;;;;;;4958318;28;20030;-66
2022/10/11 01:06:35;;;;;;;16.23;5.13;;;8.10;99.90;;;;;;4963035;28;20142;-65
2022/10/11 01:09:01;;;;;;;9.70;4.95;;;8.10;99.90;;;;;;4961889;28;20034;-65
2022/10/11 01:11:29;;;;;;;10.82;5.25;;;8.00;99.90;;;;;;4956747;28;20034;-65
2022/10/11 01:14:25;;;;;;;9.48;5.47;;;8.10;99.90;;;;;;4959922;28;20054;-66
2022/10/11 01:16:54;;;;;;;11.50;5.22;;;8.00;99.90;;;;;;4952569;28;20562;-65
2022/10/11 01:19:43;;;;;;;11.07;5.40;;;8.00;99.90;;;;;;4955610;28;20043;-66
2022/10/11 01:22:27;;;;;;;14.65;5.28;;;7.90;99.90;;;;;;4956854;28;20023;-65
2022/10/11 01:25:38;;;;;;;10.02;5.43;;;7.90;99.90;;;;;;4960596;28;20130;-65
2022/10/11 01:28:09;;;;;;;12.45;5.28;;;7.80;99.90;;;;;;4900402;29;20044;-65
2022/10/11 01:30:36;;;;;;;11.93;5.65;;;7.70;99.90;;;;;;4899079;29;20491;-65
2022/10/11 01:33:28;;;;;;;10.93;6.07;;;7.70;99.90;;;;;;4933253;28;20034;-65
2022/10/11 01:36:15;;;;;;;12.45;6.80;;;7.60;99.90;;;;;;4958629;28;20459;-66
2022/10/11 01:38:45;;;;;;;12.45;6.93;;;7.60;99.90;;;;;;4959919;28;20031;-65
2022/10/11 01:41:20;;;;;;;13.18;6.90;;;7.70;99.90;;;;;;4954067;28;20121;-65
2022/10/11 01:43:48;;;;;;;12.65;8.18;;;7.70;99.90;;;;;;4959004;28;20398;-65
2022/10/11 01:46:15;;;;;;;11.38;7.30;;;7.70;99.90;;;;;;4957483;28;20039;-66
2022/10/11 01:48:52;;;;;;;11.25;7.30;;;7.60;99.90;;;;;;4961086;28;20122;-65
2022/10/11 01:51:21;;;;;;;11.70;6.90;;;7.60;99.90;;;;;;4939453;28;20372;-64
2022/10/11 01:54:09;;;;;;;13.10;6.43;;;7.70;99.90;;;;;;4940541;28;20513;-64
2022/10/11 01:57:09;;;;;;;14.77;7.20;;;7.60;99.90;;;;;;4940520;28;20110;-65
2022/10/11 01:59:40;;;;;;;13.50;6.65;;;7.50;99.90;;;;;;4961611;28;20066;-65
2022/10/11 02:02:20;;;;;;;9.32;6.18;;;7.50;99.90;;;;;;4962408;28;20050;-65
2022/10/11 02:05:01;;;;;;;8.23;6.05;;;7.50;99.90;;;;;;4959407;28;20030;-65
2022/10/11 02:07:29;;;;;;;11.65;6.53;;;7.50;99.90;;;;;;4960717;28;20481;-65
2022/10/11 02:10:04;;;;;;;11.55;6.50;;;7.50;99.90;;;;;;4938067;28;20797;-65
2022/10/11 02:12:45;;;;;;;14.75;6.78;;;7.40;99.90;;;;;;4942812;28;20073;-65
2022/10/11 02:15:12;;;;;;;11.30;6.15;;;7.40;99.90;;;;;;4936943;28;20121;-65
2022/10/11 02:17:46;;;;;;;13.43;7.10;;;7.30;99.90;;;;;;4963017;28;20542;-64
2022/10/11 02:20:16;;;;;;;11.45;6.40;;;7.30;99.90;;;;;;4938490;28;20581;-65
2022/10/11 02:22:45;;;;;;;14.95;8.15;;;7.20;99.90;;;;;;4954654;28;20027;-65
2022/10/11 02:25:16;;;;;;;12.02;8.02;;;7.30;99.90;;;;;;4937018;28;20122;-65
2022/10/11 02:27:44;;;;;;;14.95;8.10;;;7.40;99.90;;;;;;4957425;28;20042;-65
2022/10/11 02:30:10;;;;;;;12.48;7.78;;;7.30;99.90;;;;;;4961395;28;20425;-65
2022/10/11 02:32:39;;;;;;;10.98;7.10;;;7.30;99.90;;;;;;4958209;28;20034;-65
2022/10/11 02:35:06;;;;;;;14.82;7.47;;;7.30;99.90;;;;;;4947579;28;20632;-64
2022/10/11 02:37:35;;;;;;;15.48;7.30;;;7.20;99.90;;;;;;4957087;28;20466;-65
2022/10/11 02:40:06;;;;;;;12.63;6.97;;;7.30;99.90;;;;;;4957555;28;20042;-65
2022/10/11 02:42:43;;;;;;;15.48;7.22;;;7.30;99.90;;;;;;4965806;28;20039;-65
2022/10/11 02:45:24;;;;;;;9.27;6.47;;;7.20;99.90;;;;;;4956369;28;20061;-64
2022/10/11 02:47:50;;;;;;;11.70;7.85;;;7.10;99.90;;;;;;4959254;28;20062;-65
2022/10/11 02:50:16;;;;;;;12.20;7.18;;;7.10;99.90;;;;;;4955213;28;20066;-65
2022/10/11 02:52:41;;;;;;;10.43;6.97;;;7.20;99.90;;;;;;4938000;28;20027;-65
2022/10/11 02:55:08;;;;;;;10.13;6.80;;;7.10;99.90;;;;;;4963166;28;20035;-65
2022/10/11 02:57:34;;;;;;;12.25;6.65;;;7.00;99.90;;;;;;4954200;28;20102;-65
2022/10/11 02:59:59;;;;;;;11.20;7.00;;;7.00;99.90;;;;;;4963988;28;20070;-65
2022/10/11 03:02:25;;;;;;;11.60;6.25;;;7.00;99.90;;;;;;4952535;28;20046;-65
2022/10/11 03:04:51;;;;;;;11.85;6.88;;;7.00;99.90;;;;;;4956974;28;20031;-65
2022/10/11 03:07:16;;;;;;;13.77;6.88;;;6.90;99.90;;;;;;4952704;28;20050;-65
2022/10/11 03:09:42;;;;;;;10.48;6.55;;;7.00;99.90;;;;;;4937543;28;20145;-65
2022/10/11 03:12:07;;;;;;;12.43;7.57;;;7.00;99.90;;;;;;4956042;28;20091;-65
2022/10/11 03:14:33;;;;;;;9.35;7.00;;;7.00;99.90;;;;;;4961209;28;20027;-65
2022/10/11 03:16:59;;;;;;;14.35;7.40;;;6.90;99.90;;;;;;4960420;28;20097;-65
2022/10/11 03:19:25;;;;;;;12.68;6.82;;;6.90;99.90;;;;;;4955614;28;20055;-65
2022/10/11 03:21:50;;;;;;;12.40;6.93;;;6.90;99.90;;;;;;4954536;28;20541;-64
2022/10/11 03:24:16;;;;;;;10.05;6.32;;;6.90;99.90;;;;;;4962002;28;20414;-64
2022/10/11 03:26:42;;;;;;;10.70;6.55;;;6.80;99.90;;;;;;4960622;28;20037;-64
2022/10/11 03:29:07;;;;;;;14.43;7.88;;;6.90;99.90;;;;;;4956067;28;20097;-64
2022/10/11 03:31:33;;;;;;;15.35;7.05;;;7.00;99.90;;;;;;4943982;28;20035;-64
2022/10/11 03:33:58;;;;;;;12.43;6.93;;;6.90;99.90;;;;;;4956958;28;20103;-65
2022/10/11 03:36:24;;;;;;;11.32;6.63;;;6.90;99.90;;;;;;4957461;28;20030;-64
2022/10/11 03:38:50;;;;;;;11.05;7.47;;;6.90;99.90;;;;;;4955453;28;20050;-65
2022/10/11 03:41:15;;;;;;;9.88;6.18;;;7.00;99.90;;;;;;4934629;28;20066;-64
2022/10/11 03:43:41;;;;;;;9.98;6.00;;;6.90;99.90;;;;;;4960770;28;20174;-64
2022/10/11 03:46:06;;;;;;;8.43;6.05;;;6.80;99.90;;;;;;4961428;28;20146;-64
2022/10/11 03:48:32;;;;;;;9.68;6.43;;;6.70;99.90;;;;;;4940270;28;20035;-64
2022/10/11 03:50:58;;;;;;;8.65;5.97;;;6.70;99.90;;;;;;4937590;28;20415;-64
2022/10/11 03:53:23;;;;;;;9.57;6.78;;;6.70;99.90;;;;;;4943691;28;20391;-65
2022/10/11 03:55:53;;;;;;;11.70;6.15;;;6.70;99.90;;;;;;4961335;28;20057;-64
2022/10/11 03:58:19;;;;;;;9.75;6.05;;;6.60;99.90;;;;;;4961380;28;20532;-64
2022/10/11 04:00:45;;;;;;;11.50;5.80;;;6.60;99.90;;;;;;4961287;28;20086;-64
2022/10/11 04:03:11;;;;;;;10.52;6.45;;;6.70;99.90;;;;;;4940131;28;20565;-65
2022/10/11 04:05:36;;;;;;;11.48;6.47;;;6.50;99.90;;;;;;4957292;28;20047;-64
2022/10/11 04:08:02;;;;;;;10.27;6.07;;;6.50;99.90;;;;;;4961715;28;20042;-64
2022/10/11 04:10:29;;;;;;;11.02;6.15;;;6.50;99.90;;;;;;4958509;28;20089;-65
2022/10/11 04:12:55;;;;;;;9.02;6.25;;;6.50;99.90;;;;;;4952749;28;20035;-64
2022/10/11 04:15:20;;;;;;;7.18;6.00;;;6.40;99.90;;;;;;4958932;28;21096;-65
2022/10/11 04:17:46;;;;;;;8.48;5.13;;;6.40;99.90;;;;;;4958461;28;20696;-65
2022/10/11 04:20:12;;;;;;;8.57;5.40;;;6.40;99.90;;;;;;4943055;28;20039;-65
2022/10/11 04:22:37;;;;;;;10.05;6.15;;;6.40;99.90;;;;;;4956418;28;20154;-64
2022/10/11 04:25:04;;;;;;;13.25;9.35;;;6.40;99.90;;;;;;4959303;28;20094;-65
2022/10/11 04:27:29;;;;;;;24.95;15.95;;;6.30;99.90;;;;;;4965831;28;20030;-64
2022/10/11 04:29:55;;;;;;;18.88;12.05;;;6.30;99.90;;;;;;4941773;28;20353;-65
2022/10/11 04:32:21;;;;;;;13.13;9.23;;;6.30;99.90;;;;;;4963713;28;20047;-64
2022/10/11 04:34:46;;;;;;;11.70;8.90;;;6.30;99.90;;;;;;4962202;28;20042;-64
2022/10/11 04:37:12;;;;;;;11.73;8.63;;;6.30;99.90;;;;;;4958084;28;20039;-64
2022/10/11 04:39:38;;;;;;;20.27;11.27;;;6.20;99.90;;;;;;4942077;28;20037;-65
2022/10/11 04:42:04;;;;;;;20.50;12.30;;;6.20;99.90;;;;;;4959606;28;20050;-65
2022/10/11 04:44:30;;;;;;;12.95;9.00;;;6.20;99.90;;;;;;4960914;28;20144;-64
2022/10/11 04:46:55;;;;;;;13.40;9.90;;;6.10;99.90;;;;;;4963948;28;20063;-65
2022/10/11 04:49:21;;;;;;;15.07;9.88;;;6.10;99.90;;;;;;4960329;28;20560;-64
2022/10/11 04:51:47;;;;;;;13.00;8.88;;;6.10;99.90;;;;;;4960430;28;20326;-65
2022/10/11 04:54:12;;;;;;;14.80;9.65;;;6.10;99.90;;;;;;4957705;28;20050;-64
2022/10/11 04:56:38;;;;;;;12.68;8.77;;;6.10;99.90;;;;;;4961600;28;20034;-65
2022/10/11 04:59:03;;;;;;;15.15;9.65;;;6.10;99.90;;;;;;4955920;28;20776;-64
2022/10/11 05:01:29;;;;;;;11.73;8.48;;;6.10;99.90;;;;;;4963095;28;20475;-65
2022/10/11 05:03:55;;;;;;;19.65;9.90;;;6.00;99.90;;;;;;4955360;28;20447;-65
2022/10/11 05:06:20;;;;;;;13.70;8.90;;;6.10;99.90;;;;;;4936691;28;20071;-64
2022/10/11 05:08:46;;;;;;;13.00;8.30;;;6.10;99.90;;;;;;4955952;28;20049;-63
2022/10/11 05:11:13;;;;;;;14.15;9.25;;;6.00;99.90;;;;;;4957342;28;20053;-64
2022/10/11 05:13:39;;;;;;;13.75;8.65;;;6.00;99.90;;;;;;4940592;28;20039;-63
2022/10/11 05:16:05;;;;;;;18.27;9.15;;;6.00;99.90;;;;;;4959846;28;21063;-65
2022/10/11 05:18:30;;;;;;;13.90;8.30;;;6.00;99.90;;;;;;4937663;28;20402;-64
2022/10/11 05:21:01;;;;;;;15.05;9.00;;;6.00;99.90;;;;;;4957663;28;20035;-65
2022/10/11 05:23:28;;;;;;;15.98;8.68;;;6.00;99.90;;;;;;4953554;28;20031;-64
2022/10/11 05:25:54;;;;;;;15.45;8.93;;;6.00;99.90;;;;;;4956000;28;20146;-64
2022/10/11 05:28:19;;;;;;;12.10;8.32;;;5.90;99.90;;;;;;4942843;28;20125;-64
2022/10/11 05:30:45;;;;;;;12.65;8.15;;;5.80;99.90;;;;;;4965900;28;20042;-64
2022/10/11 05:33:10;;;;;;;19.38;9.25;;;5.80;99.90;;;;;;4959246;28;20042;-64
2022/10/11 05:35:36;;;;;;;14.88;8.43;;;5.80;99.90;;;;;;4958806;28;20340;-64
2022/10/11 05:38:01;;;;;;;14.57;7.65;;;5.80;99.90;;;;;;4960897;28;20062;-64
2022/10/11 05:40:27;;;;;;;11.93;8.20;;;5.80;99.90;;;;;;4957077;28;20039;-64
2022/10/11 05:42:52;;;;;;;14.00;8.48;;;5.80;99.90;;;;;;4955383;28;20070;-65
2022/10/11 05:45:18;;;;;;;13.60;8.45;;;5.80;99.90;;;;;;4956899;28;20085;-64
2022/10/11 05:47:43;;;;;;;14.60;8.52;;;5.80;99.90;;;;;;4957816;28;20045;-64
2022/10/11 05:50:09;;;;;;;18.88;8.45;;;5.80;99.90;;;;;;4953886;28;20042;-64
2022/10/11 05:52:35;;;;;;;14.00;8.13;;;5.80;99.90;;;;;;4954777;28;20043;-65
2022/10/11 05:55:02;;;;;;;15.77;8.50;;;5.80;99.90;;;;;;4956367;28;20057;-64
2022/10/11 05:57:27;;;;;;;15.00;9.02;;;5.70;99.90;;;;;;4946578;28;20537;-65
2022/10/11 05:59:53;;;;;;;13.98;8.85;;;5.70;99.90;;;;;;4962736;28;20168;-64
2022/10/11 06:02:19;;;;;;;14.68;8.45;;;5.90;99.90;;;;;;4958797;28;20045;-64
2022/10/11 06:04:44;;;;;;;18.75;9.40;;;5.80;99.90;;;;;;4959512;28;20236;-63
2022/10/11 06:07:10;;;;;;;20.40;9.88;;;5.90;99.90;;;;;;4951681;28;20124;-63
2022/10/11 06:09:35;;;;;;;22.77;9.55;;;5.80;99.90;;;;;;4956622;28;20062;-64
2022/10/11 06:12:01;;;;;;;18.73;8.60;;;5.90;99.90;;;;;;4953050;28;20050;-64
2022/10/11 06:14:27;;;;;;;16.77;8.05;;;5.90;99.90;;;;;;4957130;28;20653;-63
2022/10/11 06:16:52;;;;;;;15.25;7.45;;;5.90;99.90;;;;;;4954623;28;20846;-64
2022/10/11 06:19:18;;;;;;;14.15;8.25;;;5.90;99.90;;;;;;4957911;28;20558;-64
2022/10/11 06:21:47;;;;;;;13.63;7.70;;;5.90;99.90;;;;;;4945323;28;20394;-64
2022/10/11 06:24:13;;;;;;;13.10;8.10;;;5.90;99.90;;;;;;4953471;28;20171;-64
2022/10/11 06:26:39;;;;;;;14.10;7.45;;;5.90;99.90;;;;;;4958414;28;20063;-64
2022/10/11 06:29:05;;;;;;;9.90;7.75;;;6.00;99.90;;;;;;4960319;28;20160;-64
2022/10/11 06:31:31;;;;;;;12.23;8.50;;;6.00;99.90;;;;;;4960364;28;20035;-64
2022/10/11 06:34:00;;;;;;;15.13;8.55;;;6.10;99.90;;;;;;4955790;28;20039;-64
2022/10/11 06:36:26;;;;;;;15.55;8.90;;;6.10;99.90;;;;;;4959954;28;20034;-64
2022/10/11 06:38:55;;;;;;;11.35;8.93;;;6.20;99.90;;;;;;4952191;28;20086;-64
2022/10/11 06:41:24;;;;;;;14.18;8.85;;;6.20;99.90;;;;;;4956807;28;20068;-64
2022/10/11 06:43:50;;;;;;;12.85;8.15;;;6.30;99.90;;;;;;4951703;28;20122;-64
2022/10/11 06:46:17;;;;;;;14.52;8.63;;;6.30;99.90;;;;;;4961870;28;20241;-64
2022/10/11 06:48:45;;;;;;;11.48;8.15;;;6.40;99.90;;;;;;4956254;28;20058;-64
2022/10/11 06:51:15;;;;;;;11.10;8.10;;;6.40;99.90;;;;;;4957741;28;20051;-64
2022/10/11 06:53:41;;;;;;;13.35;8.30;;;6.40;99.90;;;;;;4957619;28;20435;-64
2022/10/11 06:56:10;;;;;;;10.43;7.75;;;6.60;99.90;;;;;;4938921;28;20125;-64
2022/10/11 06:58:36;;;;;;;11.45;8.05;;;6.60;99.90;;;;;;4938842;28;20106;-64
2022/10/11 07:01:05;;;;;;;20.40;8.85;;;6.60;99.90;;;;;;4953406;28;20486;-64
2022/10/11 07:03:31;;;;;;;15.32;8.77;;;6.80;99.90;;;;;;4955551;28;20034;-64
2022/10/11 07:06:05;;;;;;;13.10;8.30;;;7.00;99.90;;;;;;4956213;28;20043;-64
2022/10/11 07:08:31;;;;;;;12.70;8.00;;;7.00;99.90;;;;;;4958892;28;20050;-64
2022/10/11 07:11:12;;;;;;;13.73;9.02;;;7.00;99.90;;;;;;4939186;28;20035;-64
2022/10/11 07:13:38;;;;;;;20.55;10.60;;;7.40;99.90;;;;;;4954939;28;20585;-64
2022/10/11 07:16:07;;;;;;;48.33;32.22;;;7.60;99.90;;;;;;4958139;28;20089;-64
2022/10/11 07:18:33;;;;;;;26.83;16.75;;;7.50;99.90;;;;;;4958988;28;20121;-65
2022/10/11 07:21:02;;;;;;;21.77;11.52;;;7.50;99.90;;;;;;4961456;28;20045;-65
2022/10/11 07:23:27;;;;;;;19.85;11.15;;;7.60;99.90;;;;;;4955089;28;20137;-65
2022/10/11 07:25:54;;;;;;;15.73;10.60;;;7.70;99.90;;;;;;4957766;28;20126;-65
2022/10/11 07:28:20;;;;;;;18.25;12.23;;;7.80;99.90;;;;;;4957930;28;20668;-65
2022/10/11 07:30:46;;;;;;;18.23;11.85;;;7.90;99.90;;;;;;4942709;28;20069;-66
2022/10/11 07:33:12;;;;;;;20.58;12.80;;;8.00;99.90;;;;;;4955128;28;20050;-66
2022/10/11 07:35:38;;;;;;;26.00;12.40;;;8.00;99.90;;;;;;4957174;28;20039;-66
2022/10/11 07:38:05;;;;;;;23.20;13.02;;;8.10;99.90;;;;;;4957713;28;20047;-66
2022/10/11 07:40:31;;;;;;;21.85;13.00;;;8.20;99.90;;;;;;4961243;28;20118;-65
2022/10/11 07:42:57;;;;;;;22.60;13.82;;;8.30;99.90;;;;;;4960524;28;20131;-66
2022/10/11 07:45:24;;;;;;;23.17;14.30;;;8.40;99.90;;;;;;4958420;28;20209;-66
2022/10/11 07:47:50;;;;;;;24.60;15.75;;;8.50;99.90;;;;;;4960806;28;20486;-66
2022/10/11 07:50:15;;;;;;;25.63;16.45;;;8.60;99.90;;;;;;4955223;28;20076;-65
2022/10/11 07:52:41;;;;;;;29.98;20.38;;;8.70;99.90;;;;;;4956634;28;20368;-67
2022/10/11 07:55:07;;;;;;;36.28;22.35;;;8.70;99.90;;;;;;4964869;28;21174;-66
2022/10/11 07:57:33;;;;;;;47.53;30.52;;;8.90;99.90;;;;;;4957096;28;20042;-66
2022/10/11 07:59:58;;;;;;;46.65;27.38;;;9.20;99.90;;;;;;4955447;28;20046;-66
2022/10/11 08:02:24;;;;;;;41.85;25.10;;;9.20;99.90;;;;;;4960483;28;20038;-66
2022/10/11 08:04:49;;;;;;;46.38;27.27;;;9.20;99.90;;;;;;4957764;28;20062;-66
2022/10/11 08:07:15;;;;;;;59.35;37.25;;;9.30;99.90;;;;;;4957608;28;20069;-66
2022/10/11 08:09:40;;;;;;;52.28;32.85;;;9.30;99.90;;;;;;4960279;28;20745;-66
2022/10/11 08:12:06;;;;;;;41.92;23.92;;;9.40;99.90;;;;;;4958420;28;20039;-66
2022/10/11 08:14:31;;;;;;;36.60;23.10;;;9.40;99.90;;;;;;4956675;28;20138;-66
2022/10/11 08:16:57;;;;;;;41.42;23.23;;;9.50;99.90;;;;;;4955861;28;20035;-66
2022/10/11 08:19:23;;;;;;;36.05;23.23;;;9.60;99.90;;;;;;4955752;28;20090;-66
2022/10/11 08:21:48;;;;;;;39.78;21.75;;;9.70;99.90;;;;;;4948256;28;20075;-66
2022/10/11 08:24:15;;;;;;;31.65;20.48;;;9.70;99.90;;;;;;4939700;28;20024;-66
2022/10/11 08:26:40;;;;;;;32.97;20.05;;;9.90;99.90;;;;;;4963792;28;20084;-66
2022/10/11 08:29:06;;;;;;;31.70;19.65;;;10.00;99.90;;;;;;4953332;28;20031;-66
2022/10/11 08:31:33;;;;;;;36.00;19.58;;;10.10;99.90;;;;;;4956749;28;20042;-66
2022/10/11 08:33:58;;;;;;;37.65;19.88;;;10.10;99.90;;;;;;4954273;28;20087;-66
2022/10/11 08:36:24;;;;;;;32.60;18.35;;;10.20;99.90;;;;;;4958044;28;20438;-66
2022/10/11 08:38:50;;;;;;;28.27;17.15;;;10.30;99.90;;;;;;4953378;28;20478;-66
2022/10/11 08:41:54;;;;;;;34.92;18.23;;;10.40;99.90;;;;;;4937272;28;20047;-66
2022/10/11 08:44:31;;;;;;;30.00;15.60;;;10.60;99.90;;;;;;4950457;28;20222;-66
2022/10/11 08:47:07;;;;;;;27.90;14.90;;;10.50;99.90;;;;;;4958647;28;20499;-66
2022/10/11 08:49:33;;;;;;;33.08;17.45;;;10.60;99.90;;;;;;4958589;28;20405;-66
2022/10/11 08:52:03;;;;;;;30.58;18.77;;;10.80;99.90;;;;;;4953030;28;20070;-66
2022/10/11 08:54:53;;;;;;;29.17;17.58;;;10.80;99.90;;;;;;4958238;28;20122;-66
2022/10/11 08:57:21;;;;;;;30.13;16.88;;;10.90;99.90;;;;;;4952614;28;20123;-66
2022/10/11 08:59:54;;;;;;;31.65;18.58;;;10.90;99.90;;;;;;4955421;28;20208;-66
2022/10/11 09:02:35;;;;;;;35.22;18.38;;;11.10;99.90;;;;;;4954309;28;20213;-66
2022/10/11 09:05:02;;;;;;;26.13;18.20;;;11.10;99.90;;;;;;4957861;28;20035;-66
2022/10/11 09:07:44;;;;;;;34.00;19.30;;;11.20;99.90;;;;;;4938656;28;20499;-65
2022/10/11 09:10:39;;;;;;;29.23;18.27;;;11.30;99.90;;;;;;4958219;28;20414;-66
2022/10/11 09:13:33;;;;;;;62.67;41.63;;;11.30;99.90;;;;;;4954668;28;20041;-66
2022/10/11 09:16:20;;;;;;;;;;;11.40;99.90;;;;;;4957434;28;20517;-66
2022/10/11 09:19:06;;;;;;;33.53;14.90;;;11.50;99.90;;;;;;4951636;28;19921;-66
2022/10/11 09:21:43;;;;;;;27.05;14.90;;;11.60;99.90;;;;;;4936642;28;20043;-66
2022/10/11 09:24:22;;;;;;;25.95;14.45;;;11.50;99.90;;;;;;4956100;28;20263;-65
2022/10/11 09:26:58;;;;;;;25.42;14.77;;;11.60;99.90;;;;;;4958231;28;20047;-66
2022/10/11 09:30:02;;;;;;;25.45;13.25;;;11.80;99.90;;;;;;4958534;28;20050;-66
2022/10/11 09:32:33;;;;;;;23.63;11.27;;;11.80;99.90;;;;;;4942888;28;20042;-66
2022/10/11 09:35:08;;;;;;;24.20;11.10;;;12.00;99.90;;;;;;4957210;28;20035;-67
2022/10/11 09:37:46;;;;;;;26.42;11.93;;;12.10;99.90;;;;;;4953056;28;20608;-66
2022/10/11 09:40:44;;;;;;;24.17;12.15;;;11.90;99.90;;;;;;4952319;28;20454;-66
2022/10/11 09:43:09;;;;;;;26.00;11.30;;;11.90;99.90;;;;;;4953281;28;20039;-66
2022/10/11 09:45:35;;;;;;;20.60;10.40;;;12.00;99.90;;;;;;4956066;28;20047;-66
2022/10/11 09:48:04;;;;;;;20.75;9.55;;;12.20;99.90;;;;;;4951852;28;20066;-66
2022/10/11 09:50:31;;;;;;;23.00;12.05;;;12.00;99.90;;;;;;4954917;28;20117;-66
2022/10/11 09:53:03;;;;;;;23.52;13.45;;;12.30;99.90;;;;;;4958133;28;20049;-66
2022/10/11 09:55:50;;;;;;;24.02;11.80;;;12.20;99.90;;;;;;4954217;28;20039;-66
2022/10/11 09:58:29;;;;;;;18.40;10.45;;;11.70;99.90;;;;;;4953825;28;20096;-66
2022/10/11 10:01:04;;;;;;;24.35;13.02;;;12.40;99.90;;;;;;4954612;28;20039;-66
2022/10/11 10:03:36;;;;;;;23.52;12.80;;;12.30;99.90;;;;;;4949869;28;20058;-66
2022/10/11 10:06:23;;;;;;;28.10;12.95;;;12.30;99.90;;;;;;4941904;28;20109;-66
2022/10/11 10:08:49;;;;;;;18.75;11.35;;;12.40;99.90;;;;;;4951855;28;20173;-66
2022/10/11 10:11:17;;;;;;;17.60;10.65;;;12.40;99.90;;;;;;4955836;28;20130;-66
2022/10/11 10:13:53;;;;;;;23.83;11.32;;;12.70;99.90;;;;;;4959283;28;20574;-67
2022/10/11 10:16:25;;;;;;;23.95;11.35;;;12.50;99.90;;;;;;4958698;28;20050;-67
2022/10/11 10:18:57;;;;;;;16.10;7.32;;;12.50;99.90;;;;;;4936710;28;20061;-66
2022/10/11 10:21:34;;;;;;;29.83;11.07;;;12.50;99.90;;;;;;4959320;28;20094;-66
2022/10/11 10:24:39;;;;;;;28.83;12.15;;;12.70;99.90;;;;;;4955292;28;20051;-66
2022/10/11 10:27:09;;;;;;;25.50;14.02;;;12.80;99.90;;;;;;4951599;28;20520;-66
2022/10/11 10:29:35;;;;;;;22.58;13.63;;;13.10;99.90;;;;;;4936185;28;20489;-66
2022/10/11 10:32:13;;;;;;;21.90;13.25;;;13.10;99.90;;;;;;4952084;28;22247;-66
2022/10/11 10:35:05;;;;;;;33.20;19.42;;;13.00;99.90;;;;;;4955843;28;20412;-66
2022/10/11 10:37:32;;;;;;;38.20;21.05;;;13.00;99.90;;;;;;4957355;28;20089;-66
2022/10/11 10:40:07;;;;;;;41.50;24.70;;;13.10;99.90;;;;;;4935450;28;20047;-66
2022/10/11 10:42:33;;;;;;;39.95;24.05;;;13.10;99.90;;;;;;4951960;28;20059;-66
2022/10/11 10:44:59;;;;;;;37.70;23.63;;;13.30;99.90;;;;;;4954060;28;20081;-66
2022/10/11 10:48:09;;;;;;;33.90;21.80;;;13.30;99.90;;;;;;4956864;28;20098;-66
2022/10/11 10:51:03;;;;;;;34.42;20.17;;;13.50;99.90;;;;;;4902107;28;20055;-66
2022/10/11 10:53:46;;;;;;;41.30;22.35;;;13.50;99.90;;;;;;4954035;28;20348;-67
2022/10/11 10:56:22;;;;;;;36.92;21.95;;;13.60;99.90;;;;;;4952944;28;20051;-67
2022/10/11 10:59:05;;;;;;;37.80;21.25;;;13.70;99.90;;;;;;4935956;28;20051;-66
2022/10/11 11:01:36;;;;;;;41.05;24.08;;;13.80;99.90;;;;;;4959616;28;20596;-67
2022/10/11 11:04:27;;;;;;;36.70;21.95;;;13.90;99.90;;;;;;4938275;28;20043;-67
2022/10/11 11:07:00;;;;;;;40.33;22.48;;;14.10;99.90;;;;;;4938954;28;20043;-67
2022/10/11 11:09:37;;;;;;;35.40;18.83;;;14.10;99.90;;;;;;4955291;28;20074;-67
2022/10/11 11:12:23;;;;;;;32.47;18.38;;;14.20;99.90;;;;;;4950803;28;20039;-67
2022/10/11 11:15:07;;;;;;;35.33;20.25;;;14.20;99.90;;;;;;4947160;28;20200;-67
2022/10/11 11:18:03;;;;;;;36.97;20.13;;;14.20;99.90;;;;;;4949356;28;20248;-67
2022/10/11 11:20:50;;;;;;;33.00;17.67;;;14.10;99.90;;;;;;4953510;28;20038;-67
2022/10/11 11:23:38;;;;;;;31.42;17.00;;;14.20;99.90;;;;;;4953562;28;20034;-67
2022/10/11 11:26:24;;;;;;;26.02;13.88;;;14.00;99.90;;;;;;4948878;28;20132;-67
2022/10/11 11:29:07;;;;;;;30.92;15.43;;;14.00;99.90;;;;;;4955718;28;20680;-68
2022/10/11 11:31:39;;;;;;;34.50;16.17;;;14.10;99.90;;;;;;4936968;28;20134;-67
2022/10/11 11:34:25;;;;;;;31.27;15.65;;;14.00;99.90;;;;;;4953638;28;20043;-67
2022/10/11 11:36:53;;;;;;;30.45;16.60;;;14.00;99.90;;;;;;4957700;28;20038;-67
2022/10/11 11:39:23;;;;;;;31.13;15.98;;;14.00;99.90;;;;;;4949498;28;20041;-67
2022/10/11 11:42:00;;;;;;;29.08;16.75;;;14.10;99.90;;;;;;4956695;28;20418;-67
2022/10/11 11:44:47;;;;;;;29.40;16.27;;;14.00;99.90;;;;;;4953142;28;20114;-67
2022/10/11 11:47:24;;;;;;;32.63;16.75;;;14.00;99.90;;;;;;4954055;28;20735;-67
2022/10/11 11:50:17;;;;;;;29.48;14.18;;;14.00;99.90;;;;;;4953371;28;20039;-68
2022/10/11 11:52:45;;;;;;;;;;;13.90;99.90;;;;;;4954211;28;20038;-67
2022/10/11 11:55:48;;;;;;;25.15;10.35;;;14.00;99.90;;;;;;4953160;28;19922;-67
2022/10/11 11:58:32;;;;;;;18.60;8.15;;;14.10;99.90;;;;;;4936565;28;20039;-67
2022/10/11 12:01:13;;;;;;;22.38;9.02;;;14.30;99.90;;;;;;4939864;28;20386;-67
2022/10/11 12:03:46;;;;;;;25.40;11.02;;;14.40;99.90;;;;;;4958896;28;20035;-66
2022/10/11 12:06:19;;;;;;;23.05;11.75;;;14.40;99.90;;;;;;4959284;28;20038;-67
2022/10/11 12:08:48;;;;;;;26.27;11.85;;;14.50;99.90;;;;;;4953440;28;20138;-67
2022/10/11 12:11:35;;;;;;;23.23;10.45;;;14.50;99.90;;;;;;4958102;28;20070;-64
2022/10/11 12:14:36;;;;;;;23.88;11.02;;;14.50;99.90;;;;;;4958715;28;20546;-64
2022/10/11 12:17:16;;;;;;;17.90;8.40;;;14.40;99.90;;;;;;4933421;28;20170;-63
2022/10/11 12:20:02;;;;;;;20.10;7.03;;;14.40;99.90;;;;;;4952544;28;20036;-63
2022/10/11 12:22:27;;;;;;;15.07;6.60;;;14.30;99.90;;;;;;4949549;28;20581;-63
2022/10/11 12:24:55;;;;;;;15.93;6.88;;;14.30;99.90;;;;;;4938676;28;20040;-63
2022/10/11 12:27:40;;;;;;;23.85;8.85;;;14.20;99.90;;;;;;4956030;28;21816;-64
2022/10/11 12:30:45;;;;;;;20.48;8.10;;;14.20;99.90;;;;;;4954124;28;20034;-63
2022/10/11 12:33:24;;;;;;;20.27;7.28;;;14.30;99.90;;;;;;4958327;28;20042;-64
2022/10/11 12:36:01;;;;;;;19.60;7.63;;;14.50;99.90;;;;;;4959924;28;20118;-64
2022/10/11 12:38:33;;;;;;;18.38;7.10;;;14.60;99.90;;;;;;4943594;28;20763;-64
2022/10/11 12:41:07;;;;;;;20.45;7.80;;;14.50;99.90;;;;;;4959257;28;20473;-62
2022/10/11 12:43:54;;;;;;;17.02;7.55;;;14.50;99.90;;;;;;4957107;28;20426;-62
2022/10/11 12:46:29;;;;;;;21.17;7.55;;;14.50;99.90;;;;;;4946179;28;20037;-65
2022/10/11 12:49:06;;;;;;;13.70;5.35;;;14.50;99.90;;;;;;4960063;28;20042;-64
2022/10/11 12:51:40;;;;;;;18.10;5.35;;;14.50;99.90;;;;;;4955123;28;20130;-65
2022/10/11 12:54:35;;;;;;;16.35;6.18;;;14.70;99.90;;;;;;4955686;28;20296;-64
2022/10/11 12:57:06;;;;;;;14.90;5.28;;;14.60;99.90;;;;;;4958113;28;20058;-64
2022/10/11 12:59:33;;;;;;;14.23;5.38;;;14.80;99.90;;;;;;4957252;28;20030;-62
2022/10/11 13:01:59;;;;;;;13.10;4.95;;;14.70;99.90;;;;;;4956889;28;20065;-64
2022/10/11 13:04:30;;;;;;;16.67;6.15;;;14.60;99.90;;;;;;4959970;28;20038;-64